createdAt,value
2022-08-04T00:01:36.892Z,19.55
2022-08-04T00:04:31.414Z,19.53
2022-08-04T00:07:19.200Z,19.49
2022-08-04T00:10:27.967Z,19.45
2022-08-04T00:13:17.007Z,19.41
2022-08-04T00:15:46.203Z,19.38
2022-08-04T00:18:17.406Z,19.35
2022-08-04T00:20:46.552Z,19.31
2022-08-04T00:23:15.412Z,19.30
2022-08-04T00:25:44.848Z,19.26
2022-08-04T00:28:13.166Z,19.24
2022-08-04T00:30:43.030Z,19.22
2022-08-04T00:33:11.801Z,19.19
2022-08-04T00:35:40.600Z,19.16
2022-08-04T00:38:11.233Z,19.12
2022-08-04T00:40:44.826Z,19.08
2022-08-04T00:43:31.886Z,19.04
2022-08-04T00:46:16.685Z,19.00
2022-08-04T00:49:07.424Z,18.97
2022-08-04T00:51:41.721Z,18.94
2022-08-04T00:54:30.519Z,18.89
2022-08-04T00:57:33.556Z,18.85
2022-08-04T01:00:13.166Z,18.82
2022-08-04T01:02:56.286Z,18.79
2022-08-04T01:06:26.260Z,18.77
2022-08-04T01:09:09.106Z,18.77
2022-08-04T01:11:57.266Z,18.74
2022-08-04T01:14:44.742Z,18.70
2022-08-04T01:17:18.580Z,18.66
2022-08-04T01:20:08.478Z,18.62
2022-08-04T01:23:14.716Z,18.56
2022-08-04T01:25:51.240Z,18.53
2022-08-04T01:28:44.160Z,18.49
2022-08-04T01:31:35.217Z,18.44
2022-08-04T01:34:23.845Z,18.41
2022-08-04T01:37:11.205Z,18.41
2022-08-04T01:39:52.175Z,18.39
2022-08-04T01:43:00.013Z,18.37
2022-08-04T01:45:29.966Z,18.35
2022-08-04T01:47:58.231Z,18.34
2022-08-04T01:50:29.183Z,18.33
2022-08-04T01:52:57.453Z,18.30
2022-08-04T01:55:52.072Z,18.27
2022-08-04T01:58:19.606Z,18.23
2022-08-04T02:00:58.759Z,18.22
2022-08-04T02:04:20.113Z,18.20
2022-08-04T02:06:26.686Z,18.18
2022-08-04T02:09:06.325Z,18.19
2022-08-04T02:11:34.227Z,18.20
2022-08-04T02:14:45.693Z,18.21
2022-08-04T02:17:28.789Z,18.21
2022-08-04T02:20:12.650Z,18.19
2022-08-04T02:22:53.539Z,18.18
2022-08-04T02:25:29.890Z,18.16
2022-08-04T02:28:26.566Z,18.15
2022-08-04T02:31:08.801Z,18.11
2022-08-04T02:33:44.546Z,18.06
2022-08-04T02:36:26.631Z,18.04
2022-08-04T02:39:03.123Z,18.02
2022-08-04T02:41:32.666Z,17.98
2022-08-04T02:44:04.291Z,17.95
2022-08-04T02:46:34.805Z,17.92
2022-08-04T02:49:11.159Z,17.88
2022-08-04T02:51:45.249Z,17.85
2022-08-04T02:54:28.279Z,17.83
2022-08-04T02:57:04.597Z,17.81
2022-08-04T03:00:10.242Z,17.80
2022-08-04T03:03:03.567Z,17.79
2022-08-04T03:05:54.150Z,17.78
2022-08-04T03:08:52.706Z,17.78
2022-08-04T03:11:39.441Z,17.78
2022-08-04T03:14:40.409Z,17.77
2022-08-04T03:17:52.572Z,17.75
2022-08-04T03:20:45.669Z,17.78
2022-08-04T03:23:33.697Z,17.79
2022-08-04T03:26:40.692Z,17.80
2022-08-04T03:29:45.997Z,17.81
2022-08-04T03:32:19.736Z,17.81
2022-08-04T03:35:25.016Z,17.81
2022-08-04T03:38:28.195Z,17.80
2022-08-04T03:41:55.300Z,17.80
2022-08-04T03:44:40.921Z,17.85
2022-08-04T03:47:26.221Z,17.89
2022-08-04T03:50:31.636Z,17.92
2022-08-04T03:53:18.467Z,17.98
2022-08-04T03:55:48.986Z,18.02
2022-08-04T03:58:46.907Z,18.05
2022-08-04T04:02:02.094Z,18.11
2022-08-04T04:04:50.050Z,18.18
2022-08-04T04:07:35.836Z,18.25
2022-08-04T04:10:26.891Z,18.32
2022-08-04T04:12:57.166Z,18.40
2022-08-04T04:16:02.620Z,18.45
2022-08-04T04:19:07.685Z,18.53
2022-08-04T04:21:41.798Z,18.61
2022-08-04T04:24:43.675Z,18.66
2022-08-04T04:27:39.652Z,18.76
2022-08-04T04:30:11.620Z,18.86
2022-08-04T04:33:20.386Z,18.94
2022-08-04T04:36:19.617Z,19.06
2022-08-04T04:39:21.744Z,19.19
2022-08-04T04:42:26.442Z,19.33
2022-08-04T04:45:30.208Z,19.44
2022-08-04T04:48:11.073Z,19.52
2022-08-04T04:50:53.595Z,19.59
2022-08-04T04:53:47.584Z,19.67
2022-08-04T04:56:41.511Z,19.74
2022-08-04T04:59:33.199Z,19.74
2022-08-04T05:02:19.499Z,19.79
2022-08-04T05:05:29.725Z,19.84
2022-08-04T05:08:44.989Z,19.86
2022-08-04T05:11:11.659Z,19.93
2022-08-04T05:14:37.804Z,19.97
2022-08-04T05:16:40.744Z,20.09
2022-08-04T05:19:26.263Z,20.19
2022-08-04T05:22:14.246Z,20.27
2022-08-04T05:24:46.477Z,20.35
2022-08-04T05:27:28.792Z,20.45
2022-08-04T05:30:03.416Z,20.56
2022-08-04T05:32:42.420Z,20.63
2022-08-04T05:35:15.726Z,20.72
2022-08-04T05:38:08.378Z,20.81
2022-08-04T05:40:40.139Z,20.95
2022-08-04T05:43:09.825Z,21.04
2022-08-04T05:45:39.313Z,21.25
2022-08-04T05:48:10.215Z,21.57
2022-08-04T05:50:39.120Z,22.13
2022-08-04T05:53:10.582Z,22.80
2022-08-04T05:55:48.821Z,23.35
2022-08-04T05:58:31.855Z,24.05
2022-08-04T06:01:01.359Z,24.50
2022-08-04T06:03:32.154Z,24.99
2022-08-04T06:06:01.093Z,25.36
2022-08-04T06:08:30.548Z,25.41
2022-08-04T06:11:03.981Z,25.39
2022-08-04T06:13:47.643Z,25.53
2022-08-04T06:16:30.057Z,25.56
2022-08-04T06:20:03.562Z,25.60
2022-08-04T06:22:02.778Z,25.68
2022-08-04T06:24:36.276Z,25.79
2022-08-04T06:27:06.514Z,26.03
2022-08-04T06:29:38.785Z,26.25
2022-08-04T06:32:26.932Z,26.50
2022-08-04T06:35:06.736Z,26.80
2022-08-04T06:37:43.619Z,26.87
2022-08-04T06:40:30.759Z,27.10
2022-08-04T06:43:03.917Z,27.46
2022-08-04T06:45:40.218Z,27.49
2022-08-04T06:48:09.382Z,27.53
2022-08-04T06:51:24.435Z,27.67
2022-08-04T06:53:27.410Z,27.93
2022-08-04T06:55:58.222Z,28.22
2022-08-04T06:58:31.743Z,28.40
2022-08-04T07:01:02.364Z,28.40
2022-08-04T07:03:32.513Z,28.21
2022-08-04T07:06:06.051Z,28.23
2022-08-04T07:08:37.018Z,28.05
2022-08-04T07:11:05.981Z,28.21
2022-08-04T07:13:34.821Z,28.26
2022-08-04T07:16:03.575Z,28.18
2022-08-04T07:18:32.490Z,28.17
2022-08-04T07:21:04.142Z,28.20
2022-08-04T07:23:32.549Z,28.13
2022-08-04T07:26:12.030Z,27.81
2022-08-04T07:28:41.759Z,27.76
2022-08-04T07:31:32.029Z,28.06
2022-08-04T07:34:16.512Z,28.30
2022-08-04T07:36:53.104Z,28.45
2022-08-04T07:39:28.336Z,28.52
2022-08-04T07:42:01.552Z,28.46
2022-08-04T07:44:32.884Z,28.67
2022-08-04T07:47:02.912Z,28.74
2022-08-04T07:49:55.491Z,28.56
2022-08-04T07:52:21.035Z,28.16
2022-08-04T07:54:52.627Z,27.79
2022-08-04T07:57:40.131Z,27.70
2022-08-04T08:00:15.022Z,27.71
2022-08-04T08:02:45.861Z,27.63
2022-08-04T08:05:17.152Z,27.40
2022-08-04T08:07:50.719Z,27.54
2022-08-04T08:10:24.482Z,28.11
2022-08-04T08:12:53.823Z,28.65
2022-08-04T08:15:22.826Z,28.93
2022-08-04T08:17:58.227Z,29.07
2022-08-04T08:20:32.588Z,29.53
2022-08-04T08:23:02.439Z,29.53
2022-08-04T08:25:32.809Z,29.57
2022-08-04T08:28:03.944Z,29.89
2022-08-04T08:30:33.646Z,30.09
2022-08-04T08:33:08.169Z,30.17
2022-08-04T08:36:03.900Z,30.71
2022-08-04T08:38:34.837Z,30.79
2022-08-04T08:41:40.565Z,30.64
2022-08-04T08:44:37.560Z,30.63
2022-08-04T08:48:06.006Z,30.59
2022-08-04T08:50:55.616Z,30.38
2022-08-04T08:53:57.699Z,30.44
2022-08-04T08:56:34.920Z,31.04
2022-08-04T08:59:22.766Z,31.05
2022-08-04T09:01:53.814Z,31.18
2022-08-04T09:04:35.700Z,31.14
2022-08-04T09:07:28.560Z,31.20
2022-08-04T09:10:25.335Z,31.06
2022-08-04T09:12:59.780Z,31.11
2022-08-04T09:15:42.066Z,31.64
2022-08-04T09:18:19.363Z,31.90
2022-08-04T09:20:56.786Z,32.07
2022-08-04T09:24:36.469Z,32.44
2022-08-04T09:27:16.061Z,33.04
2022-08-04T09:29:53.740Z,33.42
2022-08-04T09:32:33.259Z,34.01
2022-08-04T09:35:15.601Z,34.02
2022-08-04T09:38:12.161Z,33.65
2022-08-04T09:41:26.877Z,33.42
2022-08-04T09:44:50.265Z,33.75
2022-08-04T09:47:39.385Z,33.67
2022-08-04T09:50:34.155Z,34.10
2022-08-04T09:53:27.424Z,33.90
2022-08-04T09:56:10.060Z,33.22
2022-08-04T09:59:12.298Z,32.79
2022-08-04T10:01:42.708Z,32.98
2022-08-04T10:04:20.123Z,33.51
2022-08-04T10:07:01.026Z,34.36
2022-08-04T10:09:43.821Z,35.10
2022-08-04T10:12:24.069Z,35.32
2022-08-04T10:15:12.082Z,35.31
2022-08-04T10:17:55.196Z,35.21
2022-08-04T10:20:53.065Z,35.41
2022-08-04T10:23:26.775Z,35.47
2022-08-04T10:26:13.019Z,35.37
2022-08-04T10:28:55.659Z,35.03
2022-08-04T10:31:29.666Z,34.62
2022-08-04T10:34:11.981Z,34.36
2022-08-04T10:37:20.614Z,33.87
2022-08-04T10:40:13.072Z,34.14
2022-08-04T10:42:54.158Z,34.15
2022-08-04T10:45:29.475Z,34.31
2022-08-04T10:48:14.482Z,35.06
2022-08-04T10:50:55.402Z,35.41
2022-08-04T10:53:37.824Z,35.57
2022-08-04T10:56:30.516Z,35.46
2022-08-04T10:59:04.769Z,35.17
2022-08-04T11:01:50.573Z,34.62
2022-08-04T11:04:46.998Z,34.30
2022-08-04T11:07:17.740Z,35.00
2022-08-04T11:09:46.932Z,36.09
2022-08-04T11:12:21.492Z,36.55
2022-08-04T11:15:05.327Z,36.52
2022-08-04T11:17:38.747Z,36.51
2022-08-04T11:20:36.975Z,36.78
2022-08-04T11:23:14.281Z,36.26
2022-08-04T11:26:03.766Z,36.34
2022-08-04T11:29:04.063Z,36.71
2022-08-04T11:31:36.838Z,37.35
2022-08-04T11:34:18.321Z,38.00
2022-08-04T11:36:52.126Z,38.68
2022-08-04T11:39:38.577Z,39.66
2022-08-04T11:42:21.096Z,39.30
2022-08-04T11:45:07.201Z,38.36
2022-08-04T11:47:40.508Z,37.96
2022-08-04T11:50:11.719Z,37.67
2022-08-04T11:52:43.523Z,37.52
2022-08-04T11:55:16.799Z,37.46
2022-08-04T11:57:45.282Z,37.75
2022-08-04T12:00:23.011Z,38.60
2022-08-04T12:03:04.767Z,39.52
2022-08-04T12:05:37.939Z,40.35
2022-08-04T12:08:52.044Z,41.01
2022-08-04T12:11:57.940Z,40.94
2022-08-04T12:14:41.556Z,39.10
2022-08-04T12:17:13.566Z,37.46
2022-08-04T12:20:03.813Z,37.17
2022-08-04T12:22:41.816Z,37.75
2022-08-04T12:25:16.702Z,38.67
2022-08-04T12:27:59.886Z,39.24
2022-08-04T12:31:01.475Z,39.89
2022-08-04T12:33:41.254Z,40.03
2022-08-04T12:36:45.732Z,40.27
2022-08-04T12:39:20.855Z,40.41
2022-08-04T12:41:55.725Z,41.05
2022-08-04T12:44:37.877Z,41.83
2022-08-04T12:47:26.806Z,42.34
2022-08-04T12:50:07.270Z,42.31
2022-08-04T12:53:03.517Z,42.19
2022-08-04T12:55:35.637Z,41.81
2022-08-04T12:58:13.576Z,40.93
2022-08-04T13:00:51.487Z,40.37
2022-08-04T13:03:24.035Z,39.89
2022-08-04T13:05:55.739Z,39.36
2022-08-04T13:08:36.384Z,39.29
2022-08-04T13:11:05.501Z,39.29
2022-08-04T13:13:37.166Z,39.82
2022-08-04T13:16:13.095Z,40.35
2022-08-04T13:18:51.215Z,40.08
2022-08-04T13:21:23.109Z,39.17
2022-08-04T13:24:22.861Z,39.09
2022-08-04T13:27:09.550Z,39.32
2022-08-04T13:29:57.818Z,39.20
2022-08-04T13:32:30.630Z,39.20
2022-08-04T13:35:02.217Z,39.42
2022-08-04T13:37:37.417Z,39.25
2022-08-04T13:40:09.933Z,39.03
2022-08-04T13:42:40.630Z,39.33
2022-08-04T13:45:10.163Z,39.57
2022-08-04T13:47:40.474Z,39.84
2022-08-04T13:50:27.440Z,40.46
2022-08-04T13:53:01.469Z,40.57
2022-08-04T13:55:33.566Z,40.07
2022-08-04T13:58:05.415Z,40.23
2022-08-04T14:00:52.104Z,40.61
2022-08-04T14:03:53.818Z,41.04
2022-08-04T14:06:27.172Z,41.30
2022-08-04T14:09:10.385Z,40.84
2022-08-04T14:12:07.552Z,40.52
2022-08-04T14:14:47.587Z,40.52
2022-08-04T14:17:30.499Z,40.61
2022-08-04T14:20:04.789Z,41.02
2022-08-04T14:22:35.615Z,41.56
2022-08-04T14:25:04.726Z,41.61
2022-08-04T14:27:43.626Z,41.14
2022-08-04T14:30:31.778Z,41.01
2022-08-04T14:34:01.794Z,40.55
2022-08-04T14:36:03.839Z,40.09
2022-08-04T14:38:54.689Z,40.20
2022-08-04T14:41:30.281Z,40.35
2022-08-04T14:44:02.352Z,40.65
2022-08-04T14:46:36.652Z,41.48
2022-08-04T14:49:10.447Z,41.98
2022-08-04T14:51:43.708Z,41.87
2022-08-04T14:54:18.351Z,41.73
2022-08-04T14:57:04.891Z,41.34
2022-08-04T14:59:59.488Z,40.77
2022-08-04T15:02:32.813Z,39.77
2022-08-04T15:06:02.266Z,39.83
2022-08-04T15:07:52.767Z,40.19
2022-08-04T15:10:21.635Z,40.71
2022-08-04T15:12:49.950Z,41.52
2022-08-04T15:15:36.051Z,41.86
2022-08-04T15:18:11.481Z,42.23
2022-08-04T15:20:42.864Z,43.00
2022-08-04T15:23:11.142Z,43.47
2022-08-04T15:25:48.372Z,44.01
2022-08-04T15:28:20.463Z,44.41
2022-08-04T15:30:54.355Z,44.15
2022-08-04T15:33:28.973Z,44.46
2022-08-04T15:36:37.306Z,44.70
2022-08-04T15:39:27.309Z,44.60
2022-08-04T15:42:21.651Z,43.26
2022-08-04T15:45:12.623Z,42.61
2022-08-04T15:47:41.408Z,42.38
2022-08-04T15:50:28.489Z,42.62
2022-08-04T15:53:00.924Z,43.25
2022-08-04T15:55:39.911Z,43.14
2022-08-04T15:58:09.874Z,42.44
2022-08-04T16:00:49.938Z,41.86
2022-08-04T16:03:54.263Z,42.56
2022-08-04T16:06:41.703Z,43.04
2022-08-04T16:09:23.714Z,42.16
2022-08-04T16:11:52.688Z,40.64
2022-08-04T16:14:33.970Z,38.83
2022-08-04T16:17:20.049Z,37.31
2022-08-04T16:20:04.479Z,36.36
2022-08-04T16:22:36.091Z,35.50
2022-08-04T16:25:24.691Z,34.74
2022-08-04T16:27:53.058Z,33.70
2022-08-04T16:30:21.198Z,33.11
2022-08-04T16:32:49.455Z,32.74
2022-08-04T16:35:27.287Z,32.47
2022-08-04T16:38:13.444Z,32.29
2022-08-04T16:40:46.057Z,32.11
2022-08-04T16:43:19.420Z,31.94
2022-08-04T16:45:49.096Z,31.77
2022-08-04T16:48:29.109Z,31.45
2022-08-04T16:51:05.314Z,31.15
2022-08-04T16:54:03.104Z,30.94
2022-08-04T16:56:35.638Z,30.77
2022-08-04T16:59:09.950Z,30.65
2022-08-04T17:01:49.875Z,30.52
2022-08-04T17:04:18.555Z,30.40
2022-08-04T17:06:46.996Z,30.30
2022-08-04T17:09:19.756Z,30.24
2022-08-04T17:11:48.595Z,30.20
2022-08-04T17:14:23.024Z,30.08
2022-08-04T17:16:52.461Z,29.96
2022-08-04T17:19:26.042Z,29.83
2022-08-04T17:22:05.973Z,29.69
2022-08-04T17:24:37.121Z,29.61
2022-08-04T17:28:09.511Z,29.51
2022-08-04T17:29:55.569Z,29.39
2022-08-04T17:32:24.432Z,29.30
2022-08-04T17:35:01.579Z,29.21
2022-08-04T17:37:39.867Z,29.11
2022-08-04T17:40:18.303Z,29.00
2022-08-04T17:44:04.526Z,28.93
2022-08-04T17:46:14.523Z,28.83
2022-08-04T17:48:43.031Z,28.75
2022-08-04T17:51:21.819Z,28.66
2022-08-04T17:54:11.837Z,28.56
2022-08-04T17:59:52.886Z,28.34
2022-08-04T18:02:33.373Z,28.16
2022-08-04T18:05:07.411Z,27.98
2022-08-04T18:10:51.868Z,27.49
2022-08-04T18:13:23.753Z,27.29
2022-08-04T18:16:03.056Z,27.09
2022-08-04T18:18:31.840Z,26.86
2022-08-04T18:21:03.496Z,26.69
2022-08-04T18:23:33.518Z,26.49
2022-08-04T18:26:03.749Z,26.29
2022-08-04T18:28:33.471Z,26.13
2022-08-04T18:31:05.065Z,25.98
2022-08-04T18:33:40.366Z,25.85
2022-08-04T18:36:34.877Z,25.68
2022-08-04T18:39:13.082Z,25.52
2022-08-04T18:42:00.941Z,25.41
2022-08-04T18:44:32.657Z,25.28
2022-08-04T18:47:29.975Z,25.11
2022-08-04T18:50:59.221Z,24.94
2022-08-04T18:52:53.006Z,24.79
2022-08-04T18:58:11.821Z,24.61
2022-08-04T19:00:45.872Z,24.52
2022-08-04T19:03:16.316Z,24.44
2022-08-04T19:05:51.637Z,24.38
2022-08-04T19:11:37.082Z,24.29
2022-08-04T19:13:58.199Z,24.29
2022-08-04T19:16:28.717Z,24.26
2022-08-04T19:18:58.755Z,24.22
2022-08-04T19:21:58.727Z,24.16
2022-08-04T19:24:28.469Z,24.05
2022-08-04T19:26:59.178Z,23.99
2022-08-04T19:29:37.600Z,23.91
2022-08-04T19:32:15.212Z,23.84
2022-08-04T19:34:47.469Z,23.78
2022-08-04T19:37:58.031Z,23.73
2022-08-04T19:40:09.523Z,23.66
2022-08-04T19:42:40.363Z,23.59
2022-08-04T19:45:15.364Z,23.51
2022-08-04T19:48:15.848Z,23.44
2022-08-04T19:50:34.826Z,23.32
2022-08-04T19:53:04.246Z,23.24
2022-08-04T19:55:49.424Z,23.17
2022-08-04T19:58:21.581Z,23.11
2022-08-04T20:00:55.532Z,23.05
2022-08-04T20:04:09.174Z,23.04
2022-08-04T20:06:15.365Z,23.02
2022-08-04T20:08:48.573Z,23.01
2022-08-04T20:11:18.450Z,22.99
2022-08-04T20:13:54.663Z,22.98
2022-08-04T20:16:29.526Z,22.97
2022-08-04T20:19:03.646Z,22.95
2022-08-04T20:21:53.543Z,22.96
2022-08-04T20:24:38.875Z,22.95
2022-08-04T20:27:15.368Z,22.95
2022-08-04T20:29:49.437Z,22.92
2022-08-04T20:32:22.096Z,22.88
2022-08-04T20:34:52.731Z,22.83
2022-08-04T20:37:25.261Z,22.80
2022-08-04T20:39:58.873Z,22.76
2022-08-04T20:42:33.708Z,22.68
2022-08-04T20:45:02.646Z,22.64
2022-08-04T20:47:35.518Z,22.61
2022-08-04T20:50:08.969Z,22.56
2022-08-04T20:52:56.459Z,22.49
2022-08-04T20:55:29.649Z,22.40
2022-08-04T20:58:02.958Z,22.30
2022-08-04T21:00:32.376Z,22.19
2022-08-04T21:03:00.795Z,22.08
2022-08-04T21:05:29.257Z,21.98
2022-08-04T21:07:59.732Z,21.87
2022-08-04T21:10:28.117Z,21.78
2022-08-04T21:12:56.326Z,21.71
2022-08-04T21:15:26.463Z,21.63
2022-08-04T21:18:14.626Z,21.55
2022-08-04T21:20:48.332Z,21.51
2022-08-04T21:23:16.688Z,21.47
2022-08-04T21:25:51.080Z,21.40
2022-08-04T21:28:20.276Z,21.33
2022-08-04T21:30:53.182Z,21.28
2022-08-04T21:33:36.097Z,21.21
2022-08-04T21:36:13.837Z,21.10
2022-08-04T21:38:51.266Z,21.04
2022-08-04T21:44:10.056Z,20.90
2022-08-04T21:46:44.363Z,20.83
2022-08-04T21:49:12.911Z,20.76
2022-08-04T21:51:58.347Z,20.70
2022-08-04T21:54:29.036Z,20.61
2022-08-04T21:56:57.279Z,20.55
2022-08-04T21:59:30.541Z,20.52
2022-08-04T22:02:01.576Z,20.46
2022-08-04T22:04:31.028Z,20.40
2022-08-04T22:07:03.105Z,20.34
2022-08-04T22:09:38.795Z,20.29
2022-08-04T22:12:12.520Z,20.25
2022-08-04T22:14:40.917Z,20.19
2022-08-04T22:17:13.455Z,20.13
2022-08-04T22:19:55.398Z,20.09
2022-08-04T22:22:29.644Z,20.05
2022-08-04T22:25:06.265Z,20.02
2022-08-04T22:28:02.649Z,19.97
2022-08-04T22:30:37.725Z,19.93
2022-08-04T22:33:08.916Z,19.86
2022-08-04T22:35:44.320Z,19.82
2022-08-04T22:38:20.838Z,19.77
2022-08-04T22:41:03.899Z,19.73
2022-08-04T22:43:34.658Z,19.68
2022-08-04T22:46:08.855Z,19.64
2022-08-04T22:48:43.525Z,19.61
2022-08-04T22:51:13.259Z,19.56
2022-08-04T22:53:48.730Z,19.52
2022-08-04T22:56:37.394Z,19.48
2022-08-04T22:59:11.400Z,19.44
2022-08-04T23:01:59.060Z,19.41
2022-08-04T23:04:32.683Z,19.39
2022-08-04T23:07:09.218Z,19.35
2022-08-04T23:09:50.333Z,19.31
2022-08-04T23:12:26.549Z,19.28
2022-08-04T23:14:57.540Z,19.24
2022-08-04T23:17:28.523Z,19.19
2022-08-04T23:19:59.573Z,19.14
2022-08-04T23:22:36.993Z,19.09
2022-08-04T23:25:16.561Z,19.03
2022-08-04T23:27:50.980Z,18.98
2022-08-04T23:30:24.767Z,18.95
2022-08-04T23:32:59.046Z,18.91
2022-08-04T23:35:27.576Z,18.87
2022-08-04T23:37:57.308Z,18.85
2022-08-04T23:40:34.269Z,18.79
2022-08-04T23:43:13.471Z,18.72
2022-08-04T23:46:04.255Z,18.68
2022-08-04T23:48:38.840Z,18.67
2022-08-04T23:51:14.468Z,18.66
2022-08-04T23:54:02.281Z,18.64
2022-08-04T23:56:35.874Z,18.63
2022-08-04T23:59:06.326Z,18.62
